Airfield :
LOGIN :

Register | Disclaimer

   EN    FR    IT 

 










Legend :    VFR   Marginal VFR   IFR   Intensive IFR   Very Intensive IFR
Visi :
Ceiling :
>= 8 km
>= 3000ft
5 to 8 km
1000 to 3000 ft
1500m to 5 km
500 to 1000 ft
800 to 1500m
200 to 500 ft
< 800m
< 200 ft
Symbols :   Thunderstorms  Fog  Heavy snow  Heavy precipitations  Wind > 20 kt
SIGMETs :     Misc.  Thunderstorms  Icing  Turbulence  Mountain Waves  Volcanic Ashes







- Airport Elevation : 1416 ft
- IATA code : ZRH


LSZH - Zurich

CURRENT METAR :
  • 241520Z 20005KT 170V230 9999 FEW055 24/10 Q1017 NOSIG

EXPIRED METARs :
  • 241450Z 24006KT 160V280 9999 FEW055 24/09 Q1017 NOSIG
  • 241350Z VRB06KT 9999 FEW050 23/11 Q1017 NOSIG
  • 241320Z 24006KT 200V290 9999 FEW050 23/11 Q1017 NOSIG
  • 241250Z 25004KT 180V340 9999 FEW050 23/10 Q1018 NOSIG

TAF TAF LSZH
Valid from the 24 at 12:00 until the 25 at 18:00 UTC


241125Z 2412/2518 VRB03KT 9999 FEW030 TX24/2415Z TN10/2504Z TX26/2515Z
PROB30 2415/2419 SHRA SCT050TCU
BECMG 2419/2422 CAVOK
PROB40
TEMPO 2501/2505 8000 MIFG
TEMPO 2506/2518 9999 FEW050
ATIS : +41 43 816 2295 (DEP) +41 43 816 2294 (ARR)
No reported NOTAMs for that airfield.



MET'MAP, your aeronautical weather chart ! - Copyright ORBIFLY December 2007 - Disclaimer

ORBIFLY MET'MAP TEAM :

Programming & Development : Alexandra Zaïnal
Concept & Development : Baudouin d'Aumeries
Co-Development & Prog : Marc-Olivier Méhu
Technical & hardware support : Manuel Goepfert

Contact : metmap@orbifly.com




SOURCES & CREDITS :

   NOAA